Time;durP1;ratioP1;P1;durP2;ratioP2;P2;SDS_P1;SDS_P2;PMS_P1;PMS_P2;Temp;Humidity;BMP_temperature;BMP_pressure;BME280_temperature;BME280_humidity;BME280_pressure;Samples;Min_cycle;Max_cycle;Signal;HPM_P1;HPM_P2
2021/12/28 00:01:06;;;;;;;70.13;36.75;;;-5.50;99.90;;;;;;5060866;28;20196;-47
2021/12/28 00:03:36;;;;;;;78.53;38.17;;;-5.40;99.90;;;;;;5060859;28;20454;-46
2021/12/28 00:06:05;;;;;;;95.40;36.72;;;-5.50;99.90;;;;;;5060936;28;20242;-45
2021/12/28 00:08:32;;;;;;;63.33;34.35;;;-5.50;99.90;;;;;;5061777;28;20215;-48
2021/12/28 00:11:00;;;;;;;77.20;37.58;;;-5.60;99.90;;;;;;5061585;28;20287;-45
2021/12/28 00:13:29;;;;;;;77.40;37.28;;;-5.70;99.90;;;;;;5061625;28;20204;-46
2021/12/28 00:18:24;;;;;;;74.07;35.75;;;-5.70;99.90;;;;;;5060023;28;20216;-44
2021/12/28 00:20:56;;;;;;;76.72;39.30;;;-5.70;99.90;;;;;;5060378;28;20195;-45
2021/12/28 00:23:33;;;;;;;75.80;39.17;;;-5.80;99.90;;;;;;5060563;28;20200;-45
2021/12/28 00:26:00;;;;;;;85.57;34.50;;;-5.90;99.90;;;;;;5060799;28;20203;-45
2021/12/28 00:28:27;;;;;;;73.78;40.35;;;-5.80;99.90;;;;;;5060649;28;20262;-45
2021/12/28 00:30:55;;;;;;;80.25;41.63;;;-5.80;99.90;;;;;;5062471;28;20195;-47
2021/12/28 00:33:24;;;;;;;76.65;37.70;;;-5.80;99.90;;;;;;5066724;28;20405;-46
2021/12/28 00:35:52;;;;;;;72.55;37.78;;;-5.90;99.90;;;;;;5064105;28;20200;-47
2021/12/28 00:38:22;;;;;;;78.40;39.22;;;-5.80;99.90;;;;;;5060716;28;20220;-45
2021/12/28 00:40:59;;;;;;;70.10;39.05;;;-6.00;99.90;;;;;;5061357;28;20207;-45
2021/12/28 00:43:27;;;;;;;78.35;39.30;;;-6.00;99.90;;;;;;5061262;28;20217;-44
2021/12/28 00:45:55;;;;;;;75.85;39.72;;;-5.90;99.90;;;;;;5061256;28;20498;-46
2021/12/28 00:48:22;;;;;;;69.70;40.20;;;-5.90;99.90;;;;;;5003126;28;1649879;-46
2021/12/28 00:50:52;;;;;;;85.05;38.22;;;-5.90;99.90;;;;;;5061617;28;20199;-44
2021/12/28 00:53:19;;;;;;;81.07;39.03;;;-5.90;99.90;;;;;;5061367;28;20222;-45
2021/12/28 00:55:47;;;;;;;69.78;36.25;;;-5.90;99.90;;;;;;5062510;28;20207;-42
2021/12/28 00:58:14;;;;;;;75.93;41.00;;;-5.90;99.90;;;;;;5062561;28;20270;-44
2021/12/28 01:00:44;;;;;;;63.17;38.97;;;-5.90;99.90;;;;;;5062740;28;20445;-45
2021/12/28 01:03:11;;;;;;;88.57;44.70;;;-5.90;99.90;;;;;;5063078;28;20263;-45
2021/12/28 01:05:40;;;;;;;78.75;40.53;;;-5.90;99.90;;;;;;5062020;28;20207;-46
2021/12/28 01:08:08;;;;;;;79.35;42.78;;;-5.90;99.90;;;;;;5061519;28;20224;-44
2021/12/28 01:10:43;;;;;;;73.88;35.10;;;-5.90;99.90;;;;;;5061344;28;20529;-44
2021/12/28 01:13:12;;;;;;;82.28;41.63;;;-5.90;99.90;;;;;;5062364;28;20281;-46
2021/12/28 01:15:41;;;;;;;80.93;40.85;;;-5.80;99.90;;;;;;5062637;28;20225;-44
2021/12/28 01:18:09;;;;;;;70.95;41.72;;;-5.90;99.90;;;;;;5062774;28;20223;-44
2021/12/28 01:20:37;;;;;;;79.93;40.25;;;-5.80;99.90;;;;;;5063638;28;20237;-46
2021/12/28 01:23:04;;;;;;;79.18;39.33;;;-5.90;99.90;;;;;;5063695;28;20226;-44
2021/12/28 01:25:32;;;;;;;80.97;37.92;;;-5.90;99.90;;;;;;5063063;28;20196;-45
2021/12/28 01:27:59;;;;;;;81.38;42.97;;;-5.90;99.90;;;;;;5062392;28;20227;-46
2021/12/28 01:30:28;;;;;;;90.03;41.67;;;-6.00;99.90;;;;;;5064045;28;20246;-44
2021/12/28 01:32:59;;;;;;;69.97;38.22;;;-5.90;99.90;;;;;;5064505;28;20249;-47
2021/12/28 01:35:28;;;;;;;96.55;46.40;;;-5.90;99.90;;;;;;5062593;28;20217;-45
2021/12/28 01:37:56;;;;;;;86.85;45.55;;;-5.90;99.90;;;;;;5065116;28;20231;-44
2021/12/28 01:40:27;;;;;;;91.20;44.78;;;-5.90;99.90;;;;;;5066713;28;20222;-46
2021/12/28 01:42:57;;;;;;;76.35;44.13;;;-5.90;99.90;;;;;;5066569;28;20199;-47
2021/12/28 01:45:47;;;;;;;80.75;44.83;;;-5.80;99.90;;;;;;5066779;28;20192;-45
2021/12/28 01:48:18;;;;;;;90.13;44.33;;;-5.80;99.90;;;;;;5064456;28;20521;-45
2021/12/28 01:50:47;;;;;;;90.45;41.42;;;-5.80;99.90;;;;;;5068484;28;20253;-45
2021/12/28 01:53:16;;;;;;;88.30;43.95;;;-5.80;99.90;;;;;;5064273;28;20410;-44
2021/12/28 01:55:47;;;;;;;84.00;45.80;;;-5.80;99.90;;;;;;5062243;28;20199;-45
2021/12/28 01:58:15;;;;;;;80.53;42.85;;;-5.80;99.90;;;;;;5063681;28;20219;-44
2021/12/28 02:00:46;;;;;;;89.30;44.90;;;-5.70;99.90;;;;;;5063814;28;20713;-45
2021/12/28 02:03:16;;;;;;;75.50;44.05;;;-5.60;99.90;;;;;;5063639;28;20219;-44
2021/12/28 02:05:44;;;;;;;91.13;44.35;;;-5.50;99.90;;;;;;5064445;28;20206;-46
2021/12/28 02:08:13;;;;;;;84.20;39.55;;;-5.50;99.90;;;;;;5063654;28;20227;-44
2021/12/28 02:10:43;;;;;;;74.22;42.55;;;-5.50;99.90;;;;;;5064350;28;20437;-44
2021/12/28 02:13:11;;;;;;;88.75;43.53;;;-5.60;99.90;;;;;;5063775;28;20430;-46
2021/12/28 02:15:39;;;;;;;102.38;49.47;;;-5.70;99.90;;;;;;5064013;28;20199;-44
2021/12/28 02:18:09;;;;;;;88.15;43.58;;;-5.80;99.90;;;;;;5063417;28;20452;-45
2021/12/28 02:20:38;;;;;;;85.85;45.63;;;-5.80;99.90;;;;;;5063703;28;20199;-44
2021/12/28 02:23:06;;;;;;;96.75;45.47;;;-5.80;99.90;;;;;;5063556;28;20265;-45
2021/12/28 02:25:35;;;;;;;78.35;43.03;;;-5.90;99.90;;;;;;5063553;28;20257;-47
2021/12/28 02:28:05;;;;;;;90.55;44.67;;;-5.90;99.90;;;;;;5063076;28;20235;-45
2021/12/28 02:30:33;;;;;;;89.20;47.08;;;-5.90;99.90;;;;;;5063671;28;20238;-45
2021/12/28 02:33:01;;;;;;;96.13;45.20;;;-5.90;99.90;;;;;;5063675;28;20241;-45
2021/12/28 02:35:28;;;;;;;85.43;45.25;;;-5.90;99.90;;;;;;5062849;28;20211;-43
2021/12/28 02:37:56;;;;;;;87.93;46.17;;;-5.80;99.90;;;;;;5063170;28;20319;-44
2021/12/28 02:40:29;;;;;;;87.15;45.10;;;-5.90;99.90;;;;;;5063020;28;20199;-44
2021/12/28 02:42:59;;;;;;;81.90;45.67;;;-5.90;99.90;;;;;;5063686;28;20200;-44
2021/12/28 02:45:34;;;;;;;90.65;47.28;;;-5.90;99.90;;;;;;5063268;28;20486;-43
2021/12/28 02:48:02;;;;;;;92.47;46.45;;;-5.90;99.90;;;;;;5075125;22;20251;-43
2021/12/28 02:50:33;;;;;;;96.60;45.38;;;-5.90;99.90;;;;;;5042685;28;20196;-45
2021/12/28 02:53:02;;;;;;;101.07;51.63;;;-5.90;99.90;;;;;;5042700;28;20246;-43
2021/12/28 02:55:32;;;;;;;81.03;44.50;;;-5.90;99.90;;;;;;5042200;28;20491;-44
2021/12/28 02:58:08;;;;;;;95.35;45.53;;;-5.90;99.90;;;;;;5042296;28;20287;-48
2021/12/28 03:00:49;;;;;;;91.60;46.83;;;-5.90;99.90;;;;;;5042390;28;20246;-44
2021/12/28 03:03:20;;;;;;;96.60;48.15;;;-6.00;99.90;;;;;;5042428;28;20287;-43
2021/12/28 03:05:50;;;;;;;90.28;47.10;;;-6.00;99.90;;;;;;5041498;28;20267;-48
2021/12/28 03:08:21;;;;;;;87.85;47.03;;;-6.10;99.90;;;;;;5041434;28;20236;-47
2021/12/28 03:10:48;;;;;;;108.22;48.20;;;-5.90;99.90;;;;;;5042337;28;20200;-46
2021/12/28 03:13:23;;;;;;;83.15;47.35;;;-5.90;99.90;;;;;;5042859;28;20431;-44
2021/12/28 03:15:50;;;;;;;89.07;45.92;;;-5.90;99.90;;;;;;5044124;28;20208;-43
2021/12/28 03:18:18;;;;;;;93.63;43.10;;;-5.90;99.90;;;;;;5042477;28;20228;-44
2021/12/28 03:20:46;;;;;;;87.60;48.08;;;-5.90;99.90;;;;;;5041640;28;20211;-47
2021/12/28 03:23:18;;;;;;;88.35;46.13;;;-5.90;99.90;;;;;;5041989;28;20201;-47
2021/12/28 03:25:45;;;;;;;103.60;47.40;;;-5.90;99.90;;;;;;5042328;28;20376;-49
2021/12/28 03:28:19;;;;;;;91.63;42.85;;;-6.00;99.90;;;;;;5041633;28;20424;-43
2021/12/28 03:30:47;;;;;;;97.45;48.92;;;-5.90;99.90;;;;;;5041975;28;20223;-48
2021/12/28 03:33:15;;;;;;;112.85;55.30;;;-5.80;99.90;;;;;;5041538;28;20196;-50
2021/12/28 03:35:42;;;;;;;105.20;52.30;;;-5.80;99.90;;;;;;5041836;28;20262;-43
2021/12/28 03:38:09;;;;;;;103.07;48.15;;;-5.80;99.90;;;;;;5041360;28;20220;-42
2021/12/28 03:40:37;;;;;;;106.60;50.42;;;-5.70;99.90;;;;;;5041851;28;20507;-44
2021/12/28 03:43:05;;;;;;;112.20;48.17;;;-5.80;99.90;;;;;;5042018;28;20200;-43
2021/12/28 03:45:32;;;;;;;87.78;45.28;;;-5.80;99.90;;;;;;5041759;28;20429;-45
2021/12/28 03:48:00;;;;;;;101.63;50.35;;;-5.70;99.90;;;;;;5040819;28;20404;-49
2021/12/28 03:50:27;;;;;;;112.10;51.97;;;-5.70;99.90;;;;;;5041400;28;20387;-46
2021/12/28 03:52:55;;;;;;;122.38;55.70;;;-5.70;99.90;;;;;;5041260;28;20403;-44
2021/12/28 03:55:24;;;;;;;112.30;52.10;;;-5.70;99.90;;;;;;5041407;28;20402;-48
2021/12/28 03:57:52;;;;;;;109.80;51.50;;;-5.70;99.90;;;;;;5040772;28;20228;-45
2021/12/28 04:00:22;;;;;;;104.65;52.67;;;-5.70;99.90;;;;;;5041260;28;20216;-50
2021/12/28 04:02:50;;;;;;;108.43;54.58;;;-5.70;99.90;;;;;;5041211;28;20207;-48
2021/12/28 04:05:18;;;;;;;109.63;52.63;;;-5.70;99.90;;;;;;5040944;28;20676;-44
2021/12/28 04:07:46;;;;;;;111.07;56.67;;;-5.70;99.90;;;;;;5040689;28;20274;-42
2021/12/28 04:10:15;;;;;;;117.30;56.15;;;-5.70;99.90;;;;;;5023472;28;20242;-47
2021/12/28 04:12:43;;;;;;;94.68;53.92;;;-5.70;99.90;;;;;;5041125;28;20219;-46
2021/12/28 04:15:14;;;;;;;107.05;53.17;;;-5.70;99.90;;;;;;5041484;28;20200;-42
2021/12/28 04:17:41;;;;;;;118.40;53.60;;;-5.70;99.90;;;;;;5040757;28;20474;-42
2021/12/28 04:20:14;;;;;;;104.38;51.90;;;-5.70;99.90;;;;;;5040870;28;20200;-42
2021/12/28 04:22:42;;;;;;;101.20;51.42;;;-5.70;99.90;;;;;;5041042;28;20200;-42
2021/12/28 04:25:12;;;;;;;100.65;50.92;;;-5.70;99.90;;;;;;5040515;28;20299;-47
2021/12/28 04:27:39;;;;;;;99.57;51.05;;;-5.70;99.90;;;;;;5040418;28;20286;-44
2021/12/28 04:30:10;;;;;;;95.35;47.60;;;-5.70;99.90;;;;;;5040645;28;20247;-46
2021/12/28 04:32:37;;;;;;;98.00;49.97;;;-5.90;99.90;;;;;;5040535;28;20242;-53
2021/12/28 04:35:05;;;;;;;98.00;49.88;;;-6.00;99.90;;;;;;5040178;28;20278;-43
2021/12/28 04:37:33;;;;;;;90.38;46.50;;;-5.90;99.90;;;;;;5039879;28;20220;-44
2021/12/28 04:40:00;;;;;;;94.22;48.78;;;-5.90;99.90;;;;;;5040506;28;20204;-44
2021/12/28 04:42:29;;;;;;;94.18;46.95;;;-5.90;99.90;;;;;;5040535;28;20511;-45
2021/12/28 04:44:57;;;;;;;113.82;53.75;;;-5.90;99.90;;;;;;5040306;28;20247;-45
2021/12/28 04:47:24;;;;;;;108.05;50.33;;;-5.90;99.90;;;;;;5039931;28;20226;-48
2021/12/28 04:49:52;;;;;;;98.05;47.20;;;-5.90;99.90;;;;;;5040180;28;20200;-43
2021/12/28 04:52:19;;;;;;;99.43;49.25;;;-5.90;99.90;;;;;;5040030;28;20200;-48
2021/12/28 04:54:47;;;;;;;97.35;47.75;;;-5.90;99.90;;;;;;5040266;28;20204;-46
2021/12/28 04:57:14;;;;;;;96.50;48.42;;;-5.90;99.90;;;;;;5039610;28;20201;-46
2021/12/28 04:59:41;;;;;;;100.72;50.22;;;-5.80;99.90;;;;;;5040072;28;20399;-47
2021/12/28 05:02:08;;;;;;;105.63;51.05;;;-5.90;99.90;;;;;;5039922;28;20248;-42
2021/12/28 05:04:35;;;;;;;93.55;51.97;;;-5.90;99.90;;;;;;5022772;28;20200;-49
2021/12/28 05:07:03;;;;;;;94.18;49.55;;;-5.70;99.90;;;;;;5040306;28;20196;-45
2021/12/28 05:09:30;;;;;;;87.65;46.15;;;-5.80;99.90;;;;;;5040127;28;20410;-45
2021/12/28 05:11:58;;;;;;;102.78;50.25;;;-5.80;99.90;;;;;;5039818;28;20521;-45
2021/12/28 05:14:25;;;;;;;100.53;50.53;;;-5.80;99.90;;;;;;5039976;28;20498;-46
2021/12/28 05:16:53;;;;;;;90.05;49.50;;;-5.70;99.90;;;;;;5039559;28;20258;-46
2021/12/28 05:19:20;;;;;;;94.25;48.20;;;-5.80;99.90;;;;;;5039643;28;20267;-46
2021/12/28 05:21:48;;;;;;;85.45;51.95;;;-5.80;99.90;;;;;;5039570;28;20238;-42
2021/12/28 05:24:15;;;;;;;97.43;51.67;;;-5.80;99.90;;;;;;5039958;28;20439;-48
2021/12/28 05:26:42;;;;;;;100.82;48.35;;;-5.80;99.90;;;;;;5039841;28;20208;-42
2021/12/28 05:29:09;;;;;;;92.65;48.03;;;-5.70;99.90;;;;;;5039755;28;20546;-47
2021/12/28 05:31:36;;;;;;;107.05;51.72;;;-5.80;99.90;;;;;;5043988;28;20478;-43
2021/12/28 05:34:07;;;;;;;92.72;48.70;;;-5.70;99.90;;;;;;5044126;28;20202;-51
2021/12/28 05:36:35;;;;;;;90.45;50.33;;;-5.70;99.90;;;;;;5044056;28;20438;-43
2021/12/28 05:39:04;;;;;;;105.20;49.47;;;-5.70;99.90;;;;;;5043617;28;20273;-45
2021/12/28 05:41:32;;;;;;;99.90;47.40;;;-5.50;99.90;;;;;;5044178;28;20250;-48
2021/12/28 05:43:59;;;;;;;99.72;51.92;;;-5.60;99.90;;;;;;5026215;28;20200;-48
2021/12/28 05:46:26;;;;;;;111.25;52.25;;;-5.60;99.90;;;;;;5043649;28;20200;-47
2021/12/28 05:48:54;;;;;;;105.10;54.97;;;-5.40;99.90;;;;;;5043295;28;20235;-44
2021/12/28 05:51:21;;;;;;;106.85;53.88;;;-5.50;99.90;;;;;;5043716;28;20196;-48
2021/12/28 05:53:48;;;;;;;105.10;54.00;;;-5.60;99.90;;;;;;5043479;28;20333;-44
2021/12/28 05:56:16;;;;;;;112.20;55.50;;;-5.50;99.90;;;;;;5043191;28;20204;-45
2021/12/28 05:58:43;;;;;;;93.25;48.55;;;-5.50;99.90;;;;;;5043424;28;20220;-42
2021/12/28 06:01:10;;;;;;;118.38;56.33;;;-5.50;99.90;;;;;;5043872;28;20262;-44
2021/12/28 06:03:38;;;;;;;104.90;51.30;;;-5.40;99.90;;;;;;5043398;28;20524;-45
2021/12/28 06:06:05;;;;;;;96.80;50.63;;;-5.40;99.90;;;;;;5042945;28;20207;-43
2021/12/28 06:08:32;;;;;;;100.80;52.92;;;-5.40;99.90;;;;;;5043376;28;20538;-47
2021/12/28 06:11:00;;;;;;;110.50;56.13;;;-5.30;99.90;;;;;;5042861;28;20247;-43
2021/12/28 06:13:27;;;;;;;102.50;52.20;;;-5.20;99.90;;;;;;5043294;28;20384;-47
2021/12/28 06:15:55;;;;;;;89.93;52.95;;;-5.20;99.90;;;;;;5042671;28;20318;-46
2021/12/28 06:18:22;;;;;;;98.78;51.53;;;-5.20;99.90;;;;;;5043221;28;20216;-43
2021/12/28 06:20:49;;;;;;;107.55;55.58;;;-5.20;99.90;;;;;;5044512;28;20230;-50
2021/12/28 06:23:17;;;;;;;86.57;50.17;;;-5.20;99.90;;;;;;5045269;28;20206;-45
2021/12/28 06:25:44;;;;;;;91.07;50.90;;;-5.10;99.90;;;;;;5043418;28;20233;-49
2021/12/28 06:28:11;;;;;;;101.20;51.03;;;-5.10;99.90;;;;;;5042777;28;20585;-44
2021/12/28 06:30:38;;;;;;;103.05;51.03;;;-5.10;99.90;;;;;;5042927;28;20219;-44
2021/12/28 06:33:06;;;;;;;107.07;54.08;;;-5.10;99.90;;;;;;5042899;28;20219;-47
2021/12/28 06:35:34;;;;;;;98.50;55.50;;;-5.10;99.90;;;;;;5042601;28;20203;-44
2021/12/28 06:38:01;;;;;;;103.50;53.88;;;-5.10;99.90;;;;;;5042583;28;20469;-43
2021/12/28 06:40:29;;;;;;;101.88;51.28;;;-5.00;99.90;;;;;;5042508;28;20208;-45
2021/12/28 06:42:56;;;;;;;95.18;53.95;;;-5.10;99.90;;;;;;5042386;28;20208;-43
2021/12/28 06:45:23;;;;;;;100.63;54.50;;;-5.10;99.90;;;;;;5042589;28;20510;-45
2021/12/28 06:47:51;;;;;;;109.43;55.78;;;-5.00;99.90;;;;;;5041875;28;20250;-45
2021/12/28 06:50:18;;;;;;;104.85;55.78;;;-4.90;99.90;;;;;;5042461;28;20196;-44
2021/12/28 06:52:46;;;;;;;112.05;55.92;;;-4.90;99.90;;;;;;5041916;28;20196;-46
2021/12/28 06:55:13;;;;;;;91.80;55.05;;;-4.90;99.90;;;;;;5042569;28;20491;-43
2021/12/28 06:57:41;;;;;;;99.35;54.15;;;-4.90;99.90;;;;;;5041902;28;20216;-43
2021/12/28 07:00:11;;;;;;;117.90;61.10;;;-4.80;99.90;;;;;;5042272;28;20277;-43
2021/12/28 07:02:39;;;;;;;116.07;58.72;;;-4.80;99.90;;;;;;5042238;28;20200;-44
2021/12/28 07:05:07;;;;;;;94.50;56.00;;;-4.80;99.90;;;;;;5042202;28;20376;-47
2021/12/28 07:07:36;;;;;;;108.72;57.20;;;-4.70;99.90;;;;;;5041689;28;20216;-45
2021/12/28 07:10:06;;;;;;;108.03;52.00;;;-4.80;99.90;;;;;;5042523;28;20270;-47
2021/12/28 07:12:34;;;;;;;98.80;54.70;;;-4.70;99.90;;;;;;5041933;28;20430;-43
2021/12/28 07:15:01;;;;;;;109.57;53.38;;;-4.60;99.90;;;;;;5042354;28;20196;-45
2021/12/28 07:17:29;;;;;;;113.00;57.75;;;-4.70;99.90;;;;;;5041280;28;20216;-46
2021/12/28 07:19:56;;;;;;;119.05;55.08;;;-4.60;99.90;;;;;;5042188;28;20226;-45
2021/12/28 07:22:23;;;;;;;101.72;54.72;;;-4.50;99.90;;;;;;5041903;28;20204;-43
2021/12/28 07:24:50;;;;;;;102.25;57.97;;;-4.50;99.90;;;;;;5041572;28;20200;-45
2021/12/28 07:27:18;;;;;;;111.30;57.72;;;-4.40;99.90;;;;;;5041763;28;20398;-47
2021/12/28 07:29:45;;;;;;;101.30;55.60;;;-4.40;99.90;;;;;;5041328;28;20224;-43
2021/12/28 07:32:12;;;;;;;97.05;54.75;;;-4.30;99.90;;;;;;5041843;28;20200;-44
2021/12/28 07:34:39;;;;;;;105.20;53.70;;;-4.30;99.90;;;;;;5041606;28;20403;-44
2021/12/28 07:37:07;;;;;;;103.47;57.92;;;-4.30;99.90;;;;;;5041062;28;20211;-45
2021/12/28 07:39:34;;;;;;;108.85;56.45;;;-4.30;99.90;;;;;;5041278;28;20502;-43
2021/12/28 07:42:02;;;;;;;86.90;52.42;;;-4.20;99.90;;;;;;5041515;28;20207;-45
2021/12/28 07:44:30;;;;;;;116.97;57.30;;;-4.20;99.90;;;;;;5041420;28;20200;-45
2021/12/28 07:46:57;;;;;;;89.60;49.67;;;-4.00;99.90;;;;;;5041856;28;20399;-44
2021/12/28 07:49:25;;;;;;;96.28;54.33;;;-4.00;99.90;;;;;;5042683;28;20228;-44
2021/12/28 07:51:52;;;;;;;104.80;55.88;;;-3.90;99.90;;;;;;5043903;28;20196;-48
2021/12/28 07:54:19;;;;;;;89.03;57.00;;;-3.80;99.90;;;;;;5040998;28;20200;-44
2021/12/28 07:56:46;;;;;;;99.40;56.80;;;-3.80;99.90;;;;;;5041511;28;20294;-45
2021/12/28 07:59:14;;;;;;;101.15;57.13;;;-3.70;99.90;;;;;;5041883;28;20227;-43
2021/12/28 08:01:42;;;;;;;93.25;54.10;;;-3.70;99.90;;;;;;5041208;28;20201;-42
2021/12/28 08:04:10;;;;;;;89.57;49.08;;;-3.60;99.90;;;;;;5041618;28;20243;-43
2021/12/28 08:06:37;;;;;;;84.55;51.22;;;-3.50;99.90;;;;;;5040817;28;20216;-44
2021/12/28 08:09:05;;;;;;;102.97;55.47;;;-3.50;99.90;;;;;;5041164;28;20228;-45
2021/12/28 08:11:34;;;;;;;91.38;54.00;;;-3.50;99.90;;;;;;5023338;28;20197;-47
2021/12/28 08:14:02;;;;;;;80.60;51.20;;;-3.40;99.90;;;;;;5040760;28;20200;-49
2021/12/28 08:16:29;;;;;;;98.72;53.35;;;-3.40;99.90;;;;;;5040091;28;20524;-47
2021/12/28 08:18:57;;;;;;;96.65;54.22;;;-3.20;99.90;;;;;;5040959;28;20287;-43
2021/12/28 08:21:43;;;;;;;91.43;53.08;;;-3.20;99.90;;;;;;5040409;28;20200;-46
2021/12/28 08:24:11;;;;;;;98.95;54.17;;;-3.20;99.90;;;;;;5041116;28;20485;-48
2021/12/28 08:26:38;;;;;;;93.90;50.53;;;-3.20;99.90;;;;;;5040516;28;20208;-43
2021/12/28 08:29:05;;;;;;;102.22;56.22;;;-3.30;99.90;;;;;;5040661;28;20388;-44
2021/12/28 08:31:34;;;;;;;89.05;50.97;;;-3.20;99.90;;;;;;5040796;28;20279;-44
2021/12/28 08:34:03;;;;;;;87.97;48.15;;;-3.20;99.90;;;;;;5040681;28;20196;-43
2021/12/28 08:36:30;;;;;;;90.70;52.58;;;-3.30;99.90;;;;;;5040523;28;20197;-46
2021/12/28 08:38:57;;;;;;;79.40;49.67;;;-3.20;99.90;;;;;;5039978;28;20274;-42
2021/12/28 08:41:24;;;;;;;100.47;51.95;;;-3.10;99.90;;;;;;5040715;28;20318;-47
2021/12/28 08:43:52;;;;;;;107.15;56.58;;;-3.00;99.90;;;;;;5040503;28;20301;-45
2021/12/28 08:46:19;;;;;;;81.82;49.00;;;-3.00;99.90;;;;;;5041132;28;20215;-42
2021/12/28 08:48:47;;;;;;;84.28;50.05;;;-3.10;99.90;;;;;;5069607;22;20253;-45
2021/12/28 08:51:14;;;;;;;104.35;54.17;;;-3.10;99.90;;;;;;5060859;28;20203;-47
2021/12/28 08:53:42;;;;;;;98.55;56.13;;;-3.10;99.90;;;;;;5060638;28;20218;-45
2021/12/28 08:56:09;;;;;;;126.55;65.80;;;-3.00;99.90;;;;;;5060530;28;20497;-46
2021/12/28 08:58:37;;;;;;;98.25;53.78;;;-3.00;99.90;;;;;;5060671;28;20265;-46
2021/12/28 09:01:04;;;;;;;88.20;49.30;;;-3.10;99.90;;;;;;5060196;28;20200;-45
2021/12/28 09:03:32;;;;;;;136.98;66.75;;;-3.00;99.90;;;;;;5061109;28;20242;-45
2021/12/28 09:06:00;;;;;;;94.68;55.75;;;-2.90;99.90;;;;;;5061501;28;20230;-44
2021/12/28 09:08:28;;;;;;;90.75;54.92;;;-2.90;99.90;;;;;;5061209;28;20219;-44
2021/12/28 09:10:55;;;;;;;91.18;51.45;;;-2.90;99.90;;;;;;5060970;28;20199;-44
2021/12/28 09:13:22;;;;;;;100.53;56.33;;;-2.90;99.90;;;;;;5061151;28;20235;-46
2021/12/28 09:15:50;;;;;;;103.03;55.70;;;-2.70;99.90;;;;;;5060940;28;20433;-44
2021/12/28 09:18:17;;;;;;;84.70;48.63;;;-2.70;99.90;;;;;;5061852;28;20545;-45
2021/12/28 09:20:45;;;;;;;91.18;50.10;;;-2.50;99.90;;;;;;5061953;28;20202;-45
2021/12/28 09:23:13;;;;;;;75.13;49.63;;;-2.50;99.90;;;;;;5061453;28;20523;-44
2021/12/28 09:25:41;;;;;;;78.93;46.70;;;-2.40;99.90;;;;;;5061472;28;20522;-44
2021/12/28 09:28:10;;;;;;;90.30;47.90;;;-2.40;99.90;;;;;;5061358;28;20224;-44
2021/12/28 09:30:39;;;;;;;86.97;50.15;;;-2.30;99.90;;;;;;5061256;28;20227;-45
2021/12/28 09:33:07;;;;;;;87.35;47.92;;;-2.20;99.90;;;;;;5061154;28;20199;-44
2021/12/28 09:35:35;;;;;;;93.63;51.20;;;-2.30;99.90;;;;;;5059899;28;20518;-45
2021/12/28 09:38:03;;;;;;;90.10;48.50;;;-2.20;99.90;;;;;;5059812;28;20553;-45
2021/12/28 09:40:34;;;;;;;82.25;48.80;;;-2.00;99.90;;;;;;5060332;28;20199;-47
2021/12/28 09:43:05;;;;;;;84.32;47.72;;;-1.90;99.90;;;;;;5060242;28;20245;-46
2021/12/28 09:45:33;;;;;;;81.00;46.60;;;-1.90;99.90;;;;;;5060129;28;20436;-47
2021/12/28 09:48:01;;;;;;;76.05;46.25;;;-1.80;99.90;;;;;;5059862;28;20233;-52
2021/12/28 09:50:28;;;;;;;80.95;47.17;;;-1.60;99.90;;;;;;5059949;28;20223;-46
2021/12/28 09:52:55;;;;;;;72.95;41.50;;;-1.50;99.90;;;;;;5060335;28;20223;-49
2021/12/28 09:55:28;;;;;;;82.90;46.10;;;-1.20;99.90;;;;;;5060245;28;20498;-45
2021/12/28 09:57:56;;;;;;;85.93;48.30;;;-0.90;99.90;;;;;;5060144;28;20242;-46
2021/12/28 10:00:24;;;;;;;80.82;42.60;;;-0.80;99.90;;;;;;5060216;28;20445;-45
2021/12/28 10:03:12;;;;;;;77.85;46.28;;;-0.70;99.90;;;;;;5060485;28;20196;-48
2021/12/28 10:05:41;;;;;;;82.90;43.30;;;-0.60;99.90;;;;;;5060807;28;20199;-45
2021/12/28 10:08:08;;;;;;;69.88;45.17;;;-0.50;99.90;;;;;;5060296;28;20219;-45
2021/12/28 10:10:39;;;;;;;69.63;42.90;;;-0.40;99.90;;;;;;5060444;28;20215;-45
2021/12/28 10:13:19;;;;;;;72.28;45.13;;;-0.40;99.90;;;;;;5059804;28;20199;-45
2021/12/28 10:15:49;;;;;;;79.35;43.33;;;-0.30;99.90;;;;;;5061422;28;20188;-45
2021/12/28 10:18:17;;;;;;;69.63;41.97;;;-0.20;99.90;;;;;;5064000;28;20228;-46
2021/12/28 10:20:51;;;;;;;69.60;41.58;;;-0.20;99.90;;;;;;5064661;28;20195;-45
2021/12/28 10:23:27;;;;;;;72.32;44.25;;;-0.20;99.90;;;;;;5068602;28;20200;-45
2021/12/28 10:25:58;;;;;;;93.93;45.75;;;-0.10;99.90;;;;;;5065532;28;20218;-45
2021/12/28 10:28:29;;;;;;;75.70;41.78;;;0.00;99.90;;;;;;5064627;28;20553;-46
2021/12/28 10:31:08;;;;;;;66.97;42.95;;;0.00;99.90;;;;;;5064504;28;20297;-47
2021/12/28 10:33:38;;;;;;;77.57;46.15;;;0.10;99.90;;;;;;5063340;28;20201;-44
2021/12/28 10:36:13;;;;;;;77.15;44.20;;;0.20;99.90;;;;;;5063675;28;20195;-47
2021/12/28 10:38:46;;;;;;;64.03;45.10;;;0.40;99.90;;;;;;5063042;28;20225;-46
2021/12/28 10:41:17;;;;;;;79.80;43.83;;;0.50;99.90;;;;;;5064069;28;20196;-44
2021/12/28 10:43:49;;;;;;;63.90;42.78;;;0.50;99.90;;;;;;5063554;28;20199;-46
2021/12/28 10:46:19;;;;;;;71.22;43.75;;;0.60;99.90;;;;;;5063233;28;20214;-47
2021/12/28 10:48:58;;;;;;;68.32;42.60;;;0.50;99.90;;;;;;5062570;28;20227;-47
2021/12/28 10:51:31;;;;;;;77.63;42.58;;;0.60;99.90;;;;;;5062930;28;20201;-45
2021/12/28 10:56:54;;;;;;;72.68;44.22;;;0.60;99.90;;;;;;5062690;28;20218;-46
2021/12/28 10:59:26;;;;;;;88.35;45.88;;;0.70;99.90;;;;;;5062312;28;20537;-47
2021/12/28 11:01:54;;;;;;;85.40;45.13;;;0.70;99.90;;;;;;5061948;28;20215;-47
2021/12/28 11:04:45;;;;;;;83.00;43.85;;;0.80;99.90;;;;;;5062689;28;20234;-46
2021/12/28 11:07:13;;;;;;;90.20;48.10;;;0.80;99.90;;;;;;5063001;28;20200;-46
2021/12/28 11:09:49;;;;;;;75.90;45.58;;;0.80;99.90;;;;;;5063826;28;20230;-46
2021/12/28 11:12:17;;;;;;;71.32;44.15;;;0.90;99.90;;;;;;5065654;28;20196;-47
2021/12/28 11:14:44;;;;;;;82.97;45.55;;;0.90;99.90;;;;;;5065524;28;20270;-47
2021/12/28 11:17:12;;;;;;;70.90;45.80;;;0.90;99.90;;;;;;5063893;28;20203;-46
2021/12/28 11:19:40;;;;;;;69.35;45.08;;;1.00;99.90;;;;;;5062244;28;20266;-47
2021/12/28 11:22:11;;;;;;;83.35;44.88;;;1.10;99.90;;;;;;5061695;28;20249;-47
2021/12/28 11:24:43;;;;;;;85.07;45.55;;;1.10;99.90;;;;;;5062499;28;20531;-45
2021/12/28 11:27:19;;;;;;;74.00;44.28;;;1.00;99.90;;;;;;5061198;28;20510;-45
2021/12/28 11:29:56;;;;;;;72.35;42.33;;;1.00;99.90;;;;;;5062123;28;20227;-46
2021/12/28 11:32:23;;;;;;;75.78;45.55;;;1.00;99.90;;;;;;5061856;28;20317;-46
2021/12/28 11:34:52;;;;;;;78.18;45.83;;;1.20;99.90;;;;;;5062428;28;20443;-47
2021/12/28 11:37:26;;;;;;;67.13;40.88;;;1.20;99.90;;;;;;5061875;28;20351;-45
2021/12/28 11:39:58;;;;;;;80.38;44.83;;;1.00;99.90;;;;;;5062320;28;20219;-45
2021/12/28 11:42:27;;;;;;;80.38;45.85;;;1.20;99.90;;;;;;5061763;28;20199;-45
2021/12/28 11:44:55;;;;;;;67.43;44.53;;;1.30;99.90;;;;;;5060670;28;20271;-45
2021/12/28 11:47:23;;;;;;;81.32;46.00;;;1.30;99.90;;;;;;5062348;28;20219;-45
2021/12/28 11:49:54;;;;;;;72.20;43.65;;;1.30;99.90;;;;;;5063242;28;20223;-46
2021/12/28 11:52:21;;;;;;;75.10;41.35;;;1.40;99.90;;;;;;5064154;28;20382;-47
2021/12/28 11:54:52;;;;;;;73.32;42.22;;;1.30;99.90;;;;;;5062102;28;20200;-45
2021/12/28 11:57:26;;;;;;;81.47;44.40;;;1.20;99.90;;;;;;5061431;28;20223;-47
2021/12/28 12:00:13;;;;;;;69.07;40.78;;;1.30;99.90;;;;;;5062054;28;20437;-46
2021/12/28 12:02:47;;;;;;;68.70;41.00;;;1.30;99.90;;;;;;5061949;28;20203;-46
2021/12/28 12:05:27;;;;;;;64.30;39.05;;;1.10;99.90;;;;;;5062790;28;20198;-44
2021/12/28 12:08:09;;;;;;;68.47;41.35;;;1.10;99.90;;;;;;5061769;28;20238;-46
2021/12/28 12:10:39;;;;;;;67.07;41.63;;;1.00;99.90;;;;;;5066143;28;20545;-45
2021/12/28 12:13:13;;;;;;;71.00;42.92;;;1.00;99.90;;;;;;5063607;28;20200;-48
2021/12/28 12:15:44;;;;;;;79.53;44.08;;;1.00;99.90;;;;;;5063453;28;20194;-50
2021/12/28 12:18:14;;;;;;;75.30;44.47;;;1.10;99.90;;;;;;5062551;28;20260;-49
2021/12/28 12:20:56;;;;;;;71.30;40.97;;;1.10;99.90;;;;;;5061387;28;20199;-46
2021/12/28 12:23:31;;;;;;;65.80;39.65;;;1.20;99.90;;;;;;5061052;28;20305;-48
2021/12/28 12:26:05;;;;;;;64.45;41.95;;;1.20;99.90;;;;;;5061089;28;20203;-47
2021/12/28 12:28:39;;;;;;;76.40;42.85;;;1.20;99.90;;;;;;5060908;28;20242;-47
2021/12/28 12:31:11;;;;;;;72.88;42.38;;;1.20;99.90;;;;;;5061422;28;20392;-45
2021/12/28 12:33:43;;;;;;;78.95;43.67;;;1.20;99.90;;;;;;5063338;28;20187;-46
2021/12/28 12:36:22;;;;;;;69.32;42.90;;;1.30;99.90;;;;;;5062909;28;20415;-45
2021/12/28 12:38:53;;;;;;;71.38;41.80;;;1.20;99.90;;;;;;5060783;28;20611;-45
2021/12/28 12:41:23;;;;;;;74.65;43.55;;;1.20;99.90;;;;;;5061095;28;20245;-48